Time;durP1;ratioP1;P1;durP2;ratioP2;P2;SDS_P1;SDS_P2;PMS_P1;PMS_P2;Temp;Humidity;BMP_temperature;BMP_pressure;BME280_temperature;BME280_humidity;BME280_pressure;Samples;Min_cycle;Max_cycle;Signal;HPM_P1;HPM_P2
2022/12/26 00:01:47;;;;;;;5.10;2.07;;;;;;;12.18;76.24;100285.31;5021044;28;20397;-74
2022/12/26 00:04:13;;;;;;;3.15;2.10;;;;;;;12.17;76.23;100282.84;5033004;28;20448;-74
2022/12/26 00:06:38;;;;;;;2.97;2.13;;;;;;;12.18;76.15;100279.88;5033399;28;20489;-74
2022/12/26 00:09:05;;;;;;;2.13;1.97;;;;;;;12.20;76.15;100276.88;5041946;28;20394;-74
2022/12/26 00:11:31;;;;;;;5.15;2.20;;;;;;;12.21;76.01;100292.13;5031906;28;20401;-74
2022/12/26 00:14:00;;;;;;;2.38;2.17;;;;;;;12.25;75.75;100299.47;5036658;28;20401;-74
2022/12/26 00:16:26;;;;;;;2.67;2.10;;;;;;;12.25;75.95;100313.06;5025971;28;20418;-74
2022/12/26 00:18:51;;;;;;;2.73;1.93;;;;;;;12.26;75.88;100301.13;5034352;28;20422;-75
2022/12/26 00:21:18;;;;;;;2.53;2.13;;;;;;;12.30;75.94;100287.84;5026156;28;20411;-74
2022/12/26 00:23:44;;;;;;;2.67;2.10;;;;;;;12.31;75.87;100287.59;5036406;28;20805;-73
2022/12/26 00:26:15;;;;;;;3.57;2.07;;;;;;;12.33;75.53;100285.41;5036723;28;20494;-73
2022/12/26 00:28:41;;;;;;;1.93;1.80;;;;;;;12.38;75.35;100290.09;5036846;28;20417;-74
2022/12/26 00:31:10;;;;;;;2.87;2.40;;;;;;;12.34;75.76;100292.50;5035124;28;20403;-74
2022/12/26 00:33:37;;;;;;;2.03;1.92;;;;;;;12.32;75.64;100289.22;5038901;28;20504;-74
2022/12/26 00:36:14;;;;;;;2.07;1.93;;;;;;;12.37;75.57;100280.28;5034252;28;20393;-74
2022/12/26 00:38:40;;;;;;;2.25;2.10;;;;;;;12.35;75.41;100285.16;5032730;28;20418;-74
2022/12/26 00:41:07;;;;;;;2.28;2.17;;;;;;;12.35;75.86;100287.84;5038923;28;20904;-74
2022/12/26 00:43:32;;;;;;;2.53;2.03;;;;;;;12.37;75.88;100272.13;5023282;28;20474;-73
2022/12/26 00:45:58;;;;;;;2.60;2.40;;;;;;;12.41;75.57;100282.19;5036762;28;20506;-74
2022/12/26 00:48:23;;;;;;;2.55;2.00;;;;;;;12.42;75.62;100274.88;5036567;28;20886;-74
2022/12/26 00:50:49;;;;;;;2.50;2.30;;;;;;;12.42;75.66;100274.88;5030637;28;20803;-74
2022/12/26 00:53:14;;;;;;;2.07;1.87;;;;;;;12.45;75.60;100275.16;5025356;28;20409;-74
2022/12/26 00:55:39;;;;;;;1.90;1.80;;;;;;;12.45;75.36;100256.16;5033170;28;20755;-73
2022/12/26 00:58:05;;;;;;;3.33;1.97;;;;;;;12.47;75.51;100255.91;5033624;28;20451;-74
2022/12/26 01:00:31;;;;;;;3.53;2.13;;;;;;;12.48;75.37;100247.47;5033673;28;20809;-74
2022/12/26 01:02:56;;;;;;;2.55;2.05;;;;;;;12.51;75.50;100239.88;5035849;28;20403;-74
2022/12/26 01:05:22;;;;;;;3.10;2.20;;;;;;;12.50;75.37;100249.94;5036105;28;20959;-74
2022/12/26 01:07:47;;;;;;;2.07;1.90;;;;;;;12.53;75.01;100243.97;5035320;28;20411;-73
2022/12/26 01:10:12;;;;;;;2.30;1.97;;;;;;;12.57;74.98;100253.25;5032401;28;20407;-74
2022/12/26 01:12:38;;;;;;;3.67;1.80;;;;;;;12.57;75.14;100247.81;5036427;28;20401;-74
2022/12/26 01:15:05;;;;;;;1.70;1.60;;;;;;;12.62;74.62;100255.16;5039873;28;20899;-74
2022/12/26 01:17:31;;;;;;;1.70;1.60;;;;;;;12.67;74.54;100269.63;5037460;28;20842;-74
2022/12/26 01:19:56;;;;;;;2.08;1.98;;;;;;;12.68;74.63;100278.59;5037162;28;20576;-74
2022/12/26 01:22:23;;;;;;;2.30;2.05;;;;;;;12.69;74.67;100280.22;5037442;28;20417;-74
2022/12/26 01:24:52;;;;;;;1.98;1.80;;;;;;;12.69;74.22;100280.22;5027585;28;20811;-74
2022/12/26 01:27:18;;;;;;;2.10;1.88;;;;;;;12.70;74.42;100303.63;5040302;28;20495;-74
2022/12/26 01:29:43;;;;;;;2.00;1.90;;;;;;;12.70;74.27;100303.63;5030857;28;20959;-74
2022/12/26 01:32:09;;;;;;;1.80;1.70;;;;;;;12.70;74.25;100307.16;5031079;28;20406;-74
2022/12/26 01:34:34;;;;;;;2.27;2.07;;;;;;;12.70;74.53;100300.91;5032167;28;20398;-74
2022/12/26 01:36:59;;;;;;;5.13;1.80;;;;;;;12.69;74.56;100302.78;5032196;28;20905;-74
2022/12/26 01:39:24;;;;;;;1.60;1.60;;;;;;;12.69;74.54;100294.63;5032256;28;20399;-74
2022/12/26 01:41:50;;;;;;;2.63;2.43;;;;;;;12.70;74.21;100279.16;5032918;28;20399;-74
2022/12/26 01:44:53;;;;;;;2.90;2.00;;;;;;;12.74;74.26;100258.50;5038203;28;20950;-74
2022/12/26 01:47:20;;;;;;;2.00;1.70;;;;;;;12.75;74.05;100284.59;5033793;28;20460;-74
2022/12/26 01:49:51;;;;;;;1.70;1.58;;;;;;;12.76;74.00;100289.78;5035070;28;20774;-74
2022/12/26 01:52:26;;;;;;;1.97;1.67;;;;;;;12.76;74.12;100283.53;5042988;28;20471;-74
2022/12/26 01:54:53;;;;;;;2.30;1.97;;;;;;;12.76;74.04;100291.69;5029546;28;20399;-74
2022/12/26 01:57:25;;;;;;;2.55;1.83;;;;;;;12.76;74.18;100292.50;5035752;28;20414;-74
2022/12/26 01:59:52;;;;;;;1.90;1.80;;;;;;;12.76;73.99;100289.78;5036308;28;20434;-74
2022/12/26 02:02:20;;;;;;;1.65;1.55;;;;;;;12.78;73.60;100298.50;5040008;28;20772;-74
2022/12/26 02:07:34;;;;;;;3.55;1.75;;;;;;;12.80;73.72;100314.56;5040994;28;20425;-73
2022/12/26 02:10:00;;;;;;;2.00;1.67;;;;;;;12.78;73.45;100316.69;5040817;28;20919;-74
2022/12/26 02:12:29;;;;;;;3.13;2.23;;;;;;;12.78;73.46;100316.69;5037655;28;20461;-74
2022/12/26 02:14:56;;;;;;;1.95;1.83;;;;;;;12.78;73.42;100327.56;5032579;28;20490;-74
2022/12/26 02:17:23;;;;;;;2.85;1.70;;;;;;;12.77;73.59;100315.09;5031462;28;20423;-74
2022/12/26 02:20:19;;;;;;;3.00;2.20;;;;;;;12.77;73.32;100321.34;5035973;28;20472;-73
2022/12/26 02:23:14;;;;;;;3.83;2.63;;;;;;;12.76;73.44;100333.28;5036306;28;20492;-74
2022/12/26 02:26:16;;;;;;;2.33;1.95;;;;;;;12.79;73.65;100321.06;5037007;28;20856;-73
2022/12/26 02:29:03;;;;;;;4.32;2.40;;;;;;;12.79;73.42;100315.63;5031851;28;20758;-74
2022/12/26 02:31:34;;;;;;;4.95;3.00;;;;;;;12.75;73.62;100309.06;5039548;28;20755;-74
2022/12/26 02:34:32;;;;;;;4.43;2.00;;;;;;;12.79;73.48;100326.50;5033447;28;20402;-74
2022/12/26 02:37:03;;;;;;;3.75;2.08;;;;;;;12.81;73.42;100329.81;5024135;28;20809;-74
2022/12/26 02:39:55;;;;;;;3.03;2.65;;;;;;;12.84;73.49;100332.00;5038773;28;20402;-74
2022/12/26 02:42:45;;;;;;;4.70;2.43;;;;;;;12.84;73.59;100319.19;5028593;28;20424;-74
2022/12/26 02:48:38;;;;;;;2.65;2.45;;;;;;;12.89;73.53;100334.72;5031929;28;20425;-74
2022/12/26 03:14:35;;;;;;;5.35;2.50;;;;;;;12.93;73.95;100306.75;5030806;28;20758;-74
2022/12/26 03:17:18;;;;;;;2.35;2.15;;;;;;;12.95;73.84;100311.91;5032422;28;20738;-74
2022/12/26 03:19:59;;;;;;;2.45;2.15;;;;;;;12.95;73.69;100303.75;5041803;28;20404;-74
2022/12/26 03:22:47;;;;;;;3.53;2.30;;;;;;;13.06;73.10;100299.19;5035751;28;20449;-74
2022/12/26 03:28:05;;;;;;;4.80;2.22;;;;;;;12.97;73.29;100304.31;5045634;28;20401;-74
2022/12/26 03:30:49;;;;;;;3.40;2.15;;;;;;;12.95;73.65;100303.75;5039549;28;20399;-74
2022/12/26 03:36:03;;;;;;;2.42;2.22;;;;;;;12.93;73.35;100301.31;5046938;28;20409;-74
2022/12/26 03:38:54;;;;;;;2.63;2.42;;;;;;;12.95;73.24;100292.88;5039796;28;20423;-74
2022/12/26 04:19:36;;;;;;;1.70;1.60;;;;;;;13.10;72.00;100273.13;5023327;28;20514;-74
2022/12/26 04:44:45;;;;;;;1.67;1.40;;;;;;;13.25;71.05;100286.78;5030972;28;20453;-74
2022/12/26 04:47:10;;;;;;;2.42;1.75;;;;;;;13.27;71.30;100293.59;5037879;28;20424;-74
2022/12/26 04:52:53;;;;;;;1.98;1.88;;;;;;;13.27;71.43;100318.06;5024892;28;20414;-74
2022/12/26 04:55:13;;;;;;;2.15;1.55;;;;;;;13.29;71.77;100324.09;5032964;28;20417;-74
2022/12/26 04:57:39;;;;;;;1.85;1.75;;;;;;;13.26;72.78;100334.69;5028504;28;20473;-74
2022/12/26 05:00:04;;;;;;;4.17;1.90;;;;;;;13.22;73.87;100347.19;5033599;28;20413;-74
2022/12/26 05:10:41;;;;;;;2.75;1.92;;;;;;;12.93;77.32;100330.41;5035300;28;20406;-73
2022/12/26 05:13:06;;;;;;;2.15;2.00;;;;;;;12.90;77.82;100336.38;5039352;28;20409;-73
2022/12/26 05:28:40;;;;;;;1.93;1.73;;;;;;;12.85;78.26;100337.16;5039066;28;20499;-73
2022/12/26 05:29:13;;;;;;;2.90;2.50;;;;;;;12.77;79.32;100320.53;5031281;28;20410;-73
2022/12/26 05:31:38;;;;;;;2.00;1.83;;;;;;;12.76;79.42;100314.25;5035928;28;20399;-73
2022/12/26 05:34:09;;;;;;;2.47;1.97;;;;;;;12.77;79.59;100313.19;5038059;28;20405;-73
2022/12/26 05:36:55;;;;;;;2.72;2.00;;;;;;;12.83;79.32;100314.03;5035170;28;20405;-73
2022/12/26 05:39:21;;;;;;;2.28;2.13;;;;;;;12.82;79.57;100320.53;5033783;28;20403;-73
2022/12/26 05:41:46;;;;;;;2.40;2.20;;;;;;;12.84;79.40;100318.41;5030835;28;20419;-73
2022/12/26 05:44:11;;;;;;;4.20;2.73;;;;;;;12.85;79.37;100323.56;5042546;28;20497;-73
2022/12/26 05:46:37;;;;;;;3.10;2.83;;;;;;;12.86;78.94;100310.78;5045034;28;20417;-73
2022/12/26 05:49:04;;;;;;;18.63;9.93;;;;;;;12.83;79.21;100309.41;5040875;28;20882;-73
2022/12/26 05:51:29;;;;;;;8.18;4.88;;;;;;;12.84;79.26;100307.50;5034661;28;20461;-73
2022/12/26 05:53:54;;;;;;;3.87;2.43;;;;;;;12.82;78.98;100315.09;5035066;28;20398;-73
2022/12/26 05:56:20;;;;;;;8.10;3.47;;;;;;;12.85;78.80;100306.41;5036188;28;20403;-73
2022/12/26 05:58:46;;;;;;;3.65;3.00;;;;;;;12.87;78.52;100312.44;5032631;28;20441;-73
2022/12/26 06:01:14;;;;;;;9.93;3.75;;;;;;;12.88;78.50;100308.59;5036955;28;20434;-73
2022/12/26 06:03:42;;;;;;;7.45;3.10;;;;;;;12.89;78.23;100329.28;5037795;28;20481;-73
2022/12/26 06:06:09;;;;;;;6.63;3.20;;;;;;;12.91;78.35;100316.22;5041783;28;20936;-73
2022/12/26 06:08:35;;;;;;;6.72;3.20;;;;;;;12.91;78.06;100311.63;5039104;28;20419;-73
2022/12/26 06:11:08;;;;;;;9.10;3.25;;;;;;;12.92;77.68;100315.97;5039711;28;20482;-73
2022/12/26 06:13:34;;;;;;;3.70;2.30;;;;;;;12.94;77.46;100310.28;5041330;28;20399;-74
2022/12/26 06:16:08;;;;;;;5.82;3.10;;;;;;;12.98;77.28;100323.09;5042514;28;20405;-73
2022/12/26 06:18:34;;;;;;;9.48;4.97;;;;;;;12.99;76.97;100322.00;5036081;28;20472;-73
2022/12/26 06:21:04;;;;;;;5.40;3.57;;;;;;;13.00;76.86;100315.50;5032750;28;20398;-73
2022/12/26 06:23:30;;;;;;;5.13;2.97;;;;;;;12.98;77.04;100328.53;5033545;28;20470;-73
2022/12/26 06:25:56;;;;;;;4.77;3.23;;;;;;;12.99;76.84;100330.16;5035628;28;20399;-73
2022/12/26 06:28:23;;;;;;;3.33;2.90;;;;;;;12.97;77.07;100329.59;5035553;28;20399;-74
2022/12/26 06:30:49;;;;;;;3.97;2.80;;;;;;;12.96;77.35;100351.63;5032890;28;20403;-73
2022/12/26 06:33:14;;;;;;;12.15;3.20;;;;;;;12.94;77.77;100370.13;5035061;28;20404;-73
2022/12/26 06:35:40;;;;;;;4.30;2.67;;;;;;;12.88;78.26;100391.03;5039105;28;20762;-73
2022/12/26 06:38:05;;;;;;;2.67;2.47;;;;;;;12.76;79.42;100400.44;5038322;28;20472;-73
2022/12/26 06:40:30;;;;;;;4.97;2.77;;;;;;;12.71;80.21;100400.44;5037320;28;20747;-73
2022/12/26 06:42:55;;;;;;;2.97;2.50;;;;;;;12.63;80.66;100398.16;5039395;28;20399;-72
2022/12/26 06:45:21;;;;;;;5.40;3.30;;;;;;;12.59;81.28;100402.47;5049271;28;20907;-73
2022/12/26 06:47:46;;;;;;;8.15;4.20;;;;;;;12.57;81.69;100396.50;5043946;28;20412;-72
2022/12/26 06:50:11;;;;;;;6.53;3.80;;;;;;;12.53;82.01;100395.38;5036399;28;20415;-72
2022/12/26 06:52:37;;;;;;;7.82;4.45;;;;;;;12.50;82.22;100394.00;5030721;28;20810;-72
2022/12/26 06:55:03;;;;;;;5.70;4.40;;;;;;;12.51;82.24;100397.53;5036723;28;20754;-72
2022/12/26 06:57:28;;;;;;;5.03;4.00;;;;;;;12.47;82.65;100392.63;5040618;28;20506;-72
2022/12/26 06:59:53;;;;;;;5.07;4.00;;;;;;;12.46;82.96;100382.00;5032437;28;20485;-72
2022/12/26 07:02:18;;;;;;;6.27;3.93;;;;;;;12.47;82.97;100389.91;5033888;28;20917;-72
2022/12/26 07:04:44;;;;;;;6.18;4.20;;;;;;;12.43;83.29;100393.38;5029722;28;20491;-72
2022/12/26 07:07:09;;;;;;;7.20;4.10;;;;;;;12.42;83.17;100381.69;5027482;28;20768;-72
2022/12/26 07:09:34;;;;;;;6.23;4.80;;;;;;;12.41;83.25;100388.19;5032433;28;20404;-73
2022/12/26 07:11:59;;;;;;;7.63;5.07;;;;;;;12.42;83.45;100383.59;5029396;28;20409;-72
2022/12/26 07:14:25;;;;;;;5.27;4.00;;;;;;;12.41;83.59;100371.09;5033698;28;20870;-72
2022/12/26 07:16:50;;;;;;;5.10;3.53;;;;;;;12.40;83.50;100375.69;5040721;28;20438;-72
2022/12/26 07:19:15;;;;;;;3.67;3.37;;;;;;;12.40;83.79;100381.13;5031299;28;20395;-72
2022/12/26 07:21:42;;;;;;;3.55;3.08;;;;;;;12.41;83.68;100393.63;5023884;28;20411;-72
2022/12/26 07:24:18;;;;;;;5.10;3.25;;;;;;;12.40;83.64;100383.03;5023319;28;20391;-72
2022/12/26 07:26:45;;;;;;;5.63;3.60;;;;;;;12.39;84.04;100392.25;5027313;28;20405;-72
2022/12/26 07:29:11;;;;;;;3.38;3.10;;;;;;;12.36;83.99;100399.03;5030335;28;20438;-72
2022/12/26 07:31:36;;;;;;;6.63;3.78;;;;;;;12.37;84.21;100389.81;5032755;28;20785;-72
2022/12/26 07:34:02;;;;;;;3.93;3.30;;;;;;;12.35;84.21;100404.72;5030001;28;20437;-73
2022/12/26 07:36:27;;;;;;;5.60;3.70;;;;;;;12.34;84.32;100417.50;5039331;28;20401;-73
2022/12/26 07:38:52;;;;;;;3.23;3.03;;;;;;;12.34;84.32;100431.09;5033264;28;20756;-72
2022/12/26 07:44:02;;;;;;;4.28;3.47;;;;;;;12.31;84.64;100430.78;5038785;28;20419;-73
2022/12/26 07:46:28;;;;;;;3.67;3.37;;;;;;;12.28;84.90;100436.72;5037692;28;20411;-73
2022/12/26 07:48:54;;;;;;;3.58;3.28;;;;;;;12.28;84.86;100436.72;5025967;28;20491;-73
2022/12/26 07:51:19;;;;;;;3.83;3.17;;;;;;;12.27;85.23;100444.06;5032088;28;20478;-72
2022/12/26 07:53:44;;;;;;;3.57;3.23;;;;;;;12.24;85.26;100441.03;5032060;28;20889;-73
2022/12/26 07:56:10;;;;;;;6.07;3.67;;;;;;;12.23;85.46;100447.53;5031721;28;20440;-72
2022/12/26 07:58:35;;;;;;;4.37;3.93;;;;;;;12.21;85.86;100445.09;5028369;28;20450;-72
2022/12/26 08:01:02;;;;;;;4.07;3.27;;;;;;;12.25;85.74;100448.13;5026613;28;20405;-73
2022/12/26 08:03:27;;;;;;;4.65;4.00;;;;;;;12.22;86.05;100452.13;5033533;28;20402;-73
2022/12/26 08:05:52;;;;;;;4.37;3.97;;;;;;;12.22;85.83;100460.28;5038775;28;20396;-73
2022/12/26 08:08:18;;;;;;;6.88;3.63;;;;;;;12.21;86.14;100457.84;5039668;28;20401;-72
2022/12/26 08:10:43;;;;;;;4.90;4.00;;;;;;;12.17;86.73;100476.56;5042871;28;20403;-72
2022/12/26 08:13:08;;;;;;;3.57;3.27;;;;;;;12.22;86.46;100479.31;5029858;28;20566;-73
2022/12/26 08:15:37;;;;;;;4.67;3.33;;;;;;;12.16;87.28;100482.22;5031025;28;20403;-73
2022/12/26 08:18:02;;;;;;;3.70;3.38;;;;;;;12.16;87.59;100482.22;5025225;28;20470;-73
2022/12/26 08:20:28;;;;;;;4.32;3.15;;;;;;;12.18;87.89;100502.66;5029303;28;20431;-72
2022/12/26 08:22:53;;;;;;;3.83;3.53;;;;;;;12.18;88.23;100499.94;5015883;28;20888;-72
2022/12/26 08:25:18;;;;;;;4.05;3.72;;;;;;;12.18;88.13;100499.94;5019864;28;20906;-72
2022/12/26 08:27:43;;;;;;;4.43;4.00;;;;;;;12.20;88.29;100507.81;5033104;28;20402;-73
2022/12/26 08:30:09;;;;;;;6.30;4.90;;;;;;;12.21;88.49;100518.44;5028050;28;20465;-73
2022/12/26 08:32:34;;;;;;;4.33;3.70;;;;;;;12.21;88.85;100525.78;5041721;28;20738;-73
2022/12/26 08:35:00;;;;;;;4.67;4.10;;;;;;;12.20;88.77;100538.53;5024774;28;20467;-73
2022/12/26 08:37:25;;;;;;;5.53;3.93;;;;;;;12.20;89.11;100524.94;5030601;28;20416;-74
2022/12/26 08:39:54;;;;;;;4.33;3.00;;;;;;;12.19;89.05;100527.91;5049078;28;20396;-73
2022/12/26 08:42:20;;;;;;;6.82;3.30;;;;;;;12.23;89.03;100529.88;5035716;28;20460;-72
2022/12/26 08:44:45;;;;;;;7.33;3.20;;;;;;;12.24;88.98;100534.25;5049488;28;20423;-73
2022/12/26 08:47:11;;;;;;;4.40;3.40;;;;;;;12.24;89.03;100536.97;5032441;28;20743;-73
2022/12/26 08:49:37;;;;;;;4.45;3.42;;;;;;;12.21;89.26;100548.34;5034020;28;20393;-73
2022/12/26 08:52:02;;;;;;;5.33;3.23;;;;;;;12.24;89.20;100541.56;5048595;28;20472;-73
2022/12/26 08:54:27;;;;;;;2.93;2.73;;;;;;;12.25;89.14;100546.72;5043810;28;20401;-73
2022/12/26 08:56:53;;;;;;;4.47;2.83;;;;;;;12.21;89.18;100548.34;5040801;28;20403;-73
2022/12/26 08:59:18;;;;;;;5.60;3.63;;;;;;;12.18;89.38;100557.00;5038214;28;20459;-73
2022/12/26 09:01:44;;;;;;;4.30;2.60;;;;;;;12.16;89.17;100559.13;5030690;28;20397;-73
2022/12/26 09:04:09;;;;;;;3.30;2.53;;;;;;;12.17;89.12;100563.50;5041076;28;20400;-74
2022/12/26 09:06:36;;;;;;;4.45;2.70;;;;;;;12.17;89.24;100562.66;5043092;28;20432;-73
2022/12/26 09:09:03;;;;;;;3.13;2.60;;;;;;;12.17;88.99;100560.78;5021123;28;20931;-73
2022/12/26 09:11:29;;;;;;;3.63;2.50;;;;;;;12.16;88.95;100566.44;5049837;28;20477;-74
2022/12/26 09:13:56;;;;;;;5.20;3.00;;;;;;;12.17;88.98;100554.50;5032777;28;20419;-73
2022/12/26 09:16:29;;;;;;;3.15;2.80;;;;;;;12.16;88.89;100561.84;5026699;28;20482;-73
2022/12/26 09:18:56;;;;;;;2.50;2.30;;;;;;;12.16;88.68;100550.97;5029051;28;20432;-72
2022/12/26 09:21:22;;;;;;;3.95;2.75;;;;;;;12.15;88.59;100526.78;5025284;28;21086;-72
2022/12/26 09:23:48;;;;;;;2.47;2.38;;;;;;;12.17;88.73;100533.59;5025285;28;20402;-72
2022/12/26 09:26:16;;;;;;;2.13;1.93;;;;;;;12.19;88.52;100542.31;5028161;28;20413;-72
2022/12/26 09:28:42;;;;;;;1.83;1.73;;;;;;;12.18;88.47;100569.75;5032904;28;20401;-73
2022/12/26 09:31:11;;;;;;;4.17;3.57;;;;;;;12.16;88.58;100572.69;5023695;28;20468;-73
2022/12/26 09:33:37;;;;;;;2.42;2.17;;;;;;;12.18;88.53;100586.88;5023505;28;20403;-72
2022/12/26 09:36:16;;;;;;;4.90;2.80;;;;;;;12.19;88.23;100595.81;5020076;28;20455;-72
2022/12/26 09:38:42;;;;;;;5.03;3.78;;;;;;;12.17;88.54;100608.84;5017528;28;20506;-72
2022/12/26 09:41:22;;;;;;;3.10;2.83;;;;;;;12.19;88.43;100609.41;5021003;28;20395;-72
2022/12/26 09:44:06;;;;;;;2.92;2.72;;;;;;;12.20;88.56;100600.19;5024393;28;20406;-72
2022/12/26 09:47:25;;;;;;;3.35;2.97;;;;;;;12.15;88.64;100621.88;5023771;28;20423;-72
2022/12/26 09:49:56;;;;;;;3.75;3.10;;;;;;;12.21;88.54;100623.59;5001287;28;21014;-73
2022/12/26 09:52:26;;;;;;;3.33;2.70;;;;;;;12.11;89.06;100618.00;4994513;28;20409;-72
2022/12/26 09:54:55;;;;;;;3.58;2.88;;;;;;;12.12;89.25;100620.47;5042288;28;20415;-72
2022/12/26 09:57:43;;;;;;;3.20;3.00;;;;;;;12.16;89.18;100607.19;5030920;28;20462;-72
2022/12/26 10:00:19;;;;;;;4.28;3.47;;;;;;;12.17;89.33;100601.53;5021424;28;20397;-72
2022/12/26 10:02:50;;;;;;;5.53;4.30;;;;;;;12.20;89.38;100609.16;5032776;28;20396;-73
2022/12/26 10:05:16;;;;;;;4.32;3.83;;;;;;;12.29;89.00;100604.09;5020483;28;20389;-72
2022/12/26 10:07:45;;;;;;;6.10;4.57;;;;;;;12.33;88.94;100607.97;5038544;28;20469;-72
2022/12/26 10:10:19;;;;;;;5.70;4.53;;;;;;;12.28;88.96;100603.28;5024998;28;20420;-72
2022/12/26 10:13:04;;;;;;;7.68;4.60;;;;;;;12.24;89.42;100602.16;5029043;28;20901;-73
2022/12/26 10:15:39;;;;;;;8.40;4.90;;;;;;;12.25;89.14;100619.28;5029473;28;20402;-72
2022/12/26 10:18:13;;;;;;;6.22;4.28;;;;;;;12.29;89.30;100614.97;5022420;28;20416;-73
2022/12/26 10:21:20;;;;;;;7.30;3.83;;;;;;;12.29;89.21;100607.66;5022588;28;20988;-72
2022/12/26 10:23:51;;;;;;;4.72;4.28;;;;;;;12.25;89.33;100608.44;5023573;28;20408;-73
2022/12/26 10:26:30;;;;;;;4.75;4.32;;;;;;;12.27;89.19;100612.53;5024122;28;20401;-73
2022/12/26 10:29:03;;;;;;;5.15;4.25;;;;;;;12.27;89.44;100620.69;5021433;28;20403;-72
2022/12/26 10:31:40;;;;;;;4.30;3.90;;;;;;;12.27;89.59;100617.13;5026861;28;20936;-72
2022/12/26 10:34:33;;;;;;;7.50;4.20;;;;;;;12.33;89.43;100624.28;5029055;28;20882;-73
2022/12/26 10:37:02;;;;;;;5.05;4.45;;;;;;;12.34;89.32;100621.31;5028807;28;20496;-72
2022/12/26 10:39:42;;;;;;;7.03;4.78;;;;;;;12.35;89.36;100620.22;5015535;28;20756;-72
2022/12/26 10:42:30;;;;;;;6.25;4.70;;;;;;;12.34;89.29;100612.34;5018372;28;21241;-72
2022/12/26 10:44:57;;;;;;;5.95;4.30;;;;;;;12.32;89.40;100618.00;5021792;28;20836;-73
2022/12/26 10:47:26;;;;;;;7.65;5.05;;;;;;;12.37;89.16;100615.38;5021148;28;20802;-72
2022/12/26 10:49:52;;;;;;;7.15;5.15;;;;;;;12.36;89.25;100596.59;5025556;28;20403;-72
2022/12/26 10:52:29;;;;;;;7.47;4.43;;;;;;;12.39;89.32;100585.22;5023216;28;20410;-72
2022/12/26 10:54:57;;;;;;;4.63;4.22;;;;;;;12.45;89.10;100597.78;5024271;28;20403;-72
2022/12/26 10:57:25;;;;;;;5.33;4.30;;;;;;;12.46;88.87;100607.59;5021558;28;20410;-73
2022/12/26 10:59:54;;;;;;;4.75;4.18;;;;;;;12.48;88.90;100606.25;5024627;28;20768;-72
2022/12/26 11:02:27;;;;;;;5.22;3.80;;;;;;;12.48;88.96;100586.41;5028799;28;20460;-73
2022/12/26 11:05:05;;;;;;;3.60;3.28;;;;;;;12.49;88.71;100590.78;5024162;28;20398;-72
2022/12/26 11:07:34;;;;;;;7.63;3.80;;;;;;;12.46;89.06;100608.41;5021749;28;20391;-72
2022/12/26 11:10:01;;;;;;;3.80;3.45;;;;;;;12.47;88.72;100609.25;5026747;28;20403;-72
2022/12/26 11:12:37;;;;;;;3.95;3.38;;;;;;;12.44;88.93;100591.56;5017144;28;20469;-72
2022/12/26 11:15:15;;;;;;;3.92;3.25;;;;;;;12.45;88.65;100590.47;5019243;28;20884;-73
2022/12/26 11:17:43;;;;;;;4.33;3.20;;;;;;;12.49;88.55;100579.91;5023323;28;20763;-73
2022/12/26 11:20:14;;;;;;;4.63;3.38;;;;;;;12.54;88.14;100584.59;5025820;28;20408;-73
2022/12/26 11:22:41;;;;;;;2.60;2.40;;;;;;;12.51;88.12;100585.09;5029124;28;20397;-73
2022/12/26 11:25:09;;;;;;;2.83;2.55;;;;;;;12.50;87.68;100586.97;5026907;28;20429;-73
2022/12/26 11:27:41;;;;;;;3.63;2.72;;;;;;;12.44;87.87;100575.25;5023382;28;20410;-73
2022/12/26 11:30:12;;;;;;;3.28;2.33;;;;;;;12.44;87.64;100577.97;5024786;28;20407;-73
2022/12/26 11:32:38;;;;;;;2.33;2.15;;;;;;;12.41;87.49;100573.00;5025694;28;20749;-73
2022/12/26 11:35:04;;;;;;;2.30;2.20;;;;;;;12.39;87.29;100583.31;5025187;28;20411;-73
2022/12/26 11:37:36;;;;;;;2.50;2.17;;;;;;;12.44;86.79;100598.88;5022701;28;20522;-73
2022/12/26 11:43:25;;;;;;;1.63;1.48;;;;;;;12.46;86.10;100600.25;5023354;28;20912;-74
2022/12/26 11:45:51;;;;;;;1.83;1.48;;;;;;;12.45;86.66;100597.78;5023478;28;20419;-74
2022/12/26 11:48:22;;;;;;;1.13;1.10;;;;;;;12.50;86.43;100600.56;5015382;28;20412;-73
2022/12/26 11:54:47;;;;;;;1.88;1.35;;;;;;;12.52;85.74;100586.72;5015317;28;20414;-73
2022/12/26 12:00:36;;;;;;;1.40;1.30;;;;;;;12.46;85.67;100585.84;5033931;28;20737;-73
2022/12/26 12:03:08;;;;;;;2.00;1.30;;;;;;;12.44;85.41;100580.69;5038105;28;20401;-75
2022/12/26 12:05:43;;;;;;;1.23;1.20;;;;;;;12.45;85.44;100573.31;5044390;28;20410;-75
2022/12/26 12:08:31;;;;;;;2.33;1.20;;;;;;;12.52;84.97;100576.66;5033936;28;20497;-74
2022/12/26 12:11:24;;;;;;;4.13;2.75;;;;;;;12.55;84.73;100583.47;5017826;28;20531;-73
2022/12/26 12:21:09;;;;;;;1.00;1.00;;;;;;;12.56;84.27;100574.25;5027505;28;20470;-74
2022/12/26 12:27:23;;;;;;;1.33;1.10;;;;;;;12.45;84.29;100582.31;5021933;28;20482;-73
2022/12/26 12:30:17;;;;;;;4.13;1.45;;;;;;;12.43;84.66;100589.06;5017262;28;20432;-74
2022/12/26 12:32:59;;;;;;;2.45;1.60;;;;;;;12.41;84.88;100585.81;5022975;28;20484;-73
2022/12/26 12:35:42;;;;;;;3.10;2.30;;;;;;;12.38;85.06;100589.03;5013414;28;20412;-73
2022/12/26 12:38:24;;;;;;;3.72;2.25;;;;;;;12.29;85.43;100594.06;5016263;28;20932;-72
2022/12/26 12:40:55;;;;;;;2.93;1.83;;;;;;;12.21;86.12;100588.25;5012705;28;20486;-73
2022/12/26 12:43:35;;;;;;;5.13;3.58;;;;;;;12.21;86.60;100575.50;5012144;28;20412;-73
2022/12/26 12:46:21;;;;;;;5.80;2.10;;;;;;;12.23;86.95;100580.66;5021548;28;20415;-73
2022/12/26 12:49:23;;;;;;;3.20;1.38;;;;;;;12.23;86.91;100577.94;5015365;28;20447;-74
2022/12/26 12:52:12;;;;;;;3.50;1.40;;;;;;;12.21;87.16;100582.81;5017144;28;20399;-73
2022/12/26 12:54:59;;;;;;;7.82;3.40;;;;;;;12.16;87.11;100582.75;5013242;28;20445;-74
2022/12/26 12:57:39;;;;;;;6.55;2.88;;;;;;;12.16;87.26;100582.75;5015858;28;20435;-73
2022/12/26 13:00:20;;;;;;;7.53;3.42;;;;;;;12.21;87.09;100577.41;5010924;28;20416;-73
2022/12/26 13:03:09;;;;;;;4.82;2.85;;;;;;;12.28;87.10;100575.31;5019318;28;20470;-73
2022/12/26 13:06:03;;;;;;;1.83;1.52;;;;;;;12.28;87.04;100580.75;5012667;28;20859;-73
2022/12/26 13:08:36;;;;;;;1.43;1.33;;;;;;;12.26;87.00;100569.28;5016435;28;20458;-73
2022/12/26 13:11:11;;;;;;;3.42;1.70;;;;;;;12.27;86.76;100576.38;5013415;28;20424;-73
2022/12/26 13:13:41;;;;;;;3.58;1.55;;;;;;;12.24;87.28;100580.44;5013967;28;20421;-73
2022/12/26 13:16:14;;;;;;;4.28;1.83;;;;;;;12.22;87.28;100579.84;5017381;28;20404;-74
2022/12/26 13:18:49;;;;;;;1.90;1.70;;;;;;;12.20;87.47;100576.56;5011935;28;20879;-73
2022/12/26 13:21:15;;;;;;;3.10;2.30;;;;;;;12.19;87.13;100569.47;5014694;28;20443;-73
2022/12/26 13:26:47;;;;;;;1.40;1.40;;;;;;;12.15;87.45;100564.81;5014729;28;21203;-73
2022/12/26 13:29:37;;;;;;;1.85;1.73;;;;;;;12.20;87.62;100564.88;5014716;28;20429;-73
2022/12/26 13:32:14;;;;;;;2.23;1.43;;;;;;;12.17;87.44;100563.50;5017644;28;20477;-73
2022/12/26 13:34:43;;;;;;;1.38;1.30;;;;;;;12.17;87.39;100568.09;5013863;28;20445;-72
2022/12/26 13:37:31;;;;;;;1.10;1.10;;;;;;;12.17;87.44;100574.34;5010705;28;20843;-73
2022/12/26 13:39:58;;;;;;;1.45;1.10;;;;;;;12.16;87.55;100580.84;5013108;28;20428;-72
2022/12/26 13:45:34;;;;;;;1.67;1.52;;;;;;;12.21;87.40;100550.22;5020156;28;20518;-73
2022/12/26 13:48:00;;;;;;;1.50;1.35;;;;;;;12.20;87.13;100546.69;5016489;28;20416;-74
2022/12/26 13:50:47;;;;;;;1.20;1.10;;;;;;;12.24;86.95;100545.09;5019028;28;20519;-74
2022/12/26 13:53:25;;;;;;;2.60;2.00;;;;;;;12.25;87.18;100545.94;5021168;28;20768;-73
2022/12/26 13:55:57;;;;;;;2.55;1.90;;;;;;;12.22;87.12;100544.53;5019107;28;20545;-73
2022/12/26 13:58:36;;;;;;;3.72;2.45;;;;;;;12.20;87.34;100543.13;5021785;28;20961;-73
2022/12/26 14:01:16;;;;;;;2.58;2.25;;;;;;;12.18;87.49;100542.59;5014946;28;20424;-73
2022/12/26 14:03:56;;;;;;;2.30;2.15;;;;;;;12.17;87.21;100557.22;5023559;28;20743;-73
2022/12/26 14:06:21;;;;;;;2.75;2.17;;;;;;;12.12;87.48;100559.91;5015593;28;20766;-72
2022/12/26 14:09:20;;;;;;;2.63;1.73;;;;;;;12.12;87.52;100566.13;5020650;28;20422;-74
2022/12/26 14:12:06;;;;;;;2.30;2.10;;;;;;;12.05;88.20;100559.25;5011637;28;20490;-73